createdAt,value
2022-09-07T00:00:45.456Z,2.40
2022-09-07T00:03:14.580Z,2.45
2022-09-07T00:05:43.158Z,2.53
2022-09-07T00:08:11.180Z,2.35
2022-09-07T00:10:39.263Z,2.40
2022-09-07T00:13:07.964Z,2.42
2022-09-07T00:15:40.228Z,2.38
2022-09-07T00:18:08.075Z,2.30
2022-09-07T00:20:37.535Z,2.85
2022-09-07T00:23:05.304Z,2.85
2022-09-07T00:25:33.378Z,2.92
2022-09-07T00:28:01.061Z,2.50
2022-09-07T00:30:28.793Z,2.10
2022-09-07T00:32:56.444Z,2.47
2022-09-07T00:35:24.132Z,3.10
2022-09-07T00:37:53.204Z,3.20
2022-09-07T00:40:20.856Z,2.95
2022-09-07T00:42:48.591Z,3.05
2022-09-07T00:45:18.379Z,2.65
2022-09-07T00:47:53.377Z,2.80
2022-09-07T00:50:26.844Z,2.08
2022-09-07T00:55:27.546Z,2.35
2022-09-07T00:57:57.382Z,2.30
2022-09-07T01:00:25.709Z,2.50
2022-09-07T01:02:56.496Z,2.67
2022-09-07T01:05:28.841Z,2.72
2022-09-07T01:07:58.579Z,2.83
2022-09-07T01:10:30.563Z,2.70
2022-09-07T01:12:58.553Z,2.30
2022-09-07T01:15:33.551Z,2.50
2022-09-07T01:18:08.766Z,2.58
2022-09-07T01:20:51.246Z,2.08
2022-09-07T01:23:48.337Z,2.63
2022-09-07T01:27:02.754Z,2.70
2022-09-07T01:29:36.722Z,2.55
2022-09-07T01:32:13.322Z,2.83
2022-09-07T01:34:44.507Z,2.60
2022-09-07T01:37:23.728Z,3.03
2022-09-07T01:39:56.937Z,2.90
2022-09-07T01:42:31.459Z,2.78
2022-09-07T01:45:03.263Z,2.40
2022-09-07T01:47:34.930Z,2.40
2022-09-07T01:50:09.343Z,2.58
2022-09-07T01:52:43.006Z,2.40
2022-09-07T01:55:16.547Z,2.30
2022-09-07T01:57:48.682Z,2.53
2022-09-07T02:00:20.073Z,2.10
2022-09-07T02:02:53.068Z,2.33
2022-09-07T02:05:24.321Z,2.15
2022-09-07T02:07:57.188Z,2.05
2022-09-07T02:10:29.448Z,2.03
2022-09-07T02:13:02.877Z,1.98
2022-09-07T02:18:05.721Z,2.78
2022-09-07T02:20:38.913Z,2.63
2022-09-07T02:23:09.971Z,2.42
2022-09-07T02:25:41.360Z,2.05
2022-09-07T02:28:13.124Z,2.47
2022-09-07T02:30:42.434Z,2.15
2022-09-07T02:33:11.155Z,2.30
2022-09-07T02:35:38.964Z,2.03
2022-09-07T02:38:08.251Z,2.20
2022-09-07T02:40:36.235Z,2.70
2022-09-07T02:43:07.060Z,2.05
2022-09-07T02:45:47.579Z,2.20
2022-09-07T02:48:23.991Z,1.73
2022-09-07T02:51:02.350Z,1.60
2022-09-07T02:53:52.153Z,2.03
2022-09-07T02:56:33.909Z,1.75
2022-09-07T02:59:08.956Z,1.98
2022-09-07T03:01:47.912Z,1.85
2022-09-07T03:04:24.844Z,2.00
2022-09-07T03:06:56.228Z,1.90
2022-09-07T03:09:27.939Z,1.80
2022-09-07T03:11:55.812Z,1.80
2022-09-07T03:14:25.966Z,1.90
2022-09-07T03:16:56.870Z,1.70
2022-09-07T03:19:25.875Z,1.83
2022-09-07T03:21:54.169Z,1.77
2022-09-07T03:24:21.853Z,1.40
2022-09-07T03:26:50.435Z,2.28
2022-09-07T03:29:18.560Z,1.80
2022-09-07T03:31:46.677Z,1.75
2022-09-07T03:34:14.507Z,2.17
2022-09-07T03:36:43.590Z,1.90
2022-09-07T03:39:13.114Z,1.75
2022-09-07T03:41:40.876Z,2.08
2022-09-07T03:44:09.037Z,2.03
2022-09-07T03:46:36.713Z,1.90
2022-09-07T03:49:04.515Z,2.40
2022-09-07T03:51:32.236Z,1.85
2022-09-07T03:54:01.297Z,1.70
2022-09-07T03:56:28.977Z,2.15
2022-09-07T03:58:56.796Z,2.17
2022-09-07T04:01:26.973Z,1.77
2022-09-07T04:04:02.110Z,2.15
2022-09-07T04:06:30.754Z,1.98
2022-09-07T04:08:58.671Z,2.15
2022-09-07T04:11:27.792Z,1.55
2022-09-07T04:13:55.501Z,1.85
2022-09-07T04:16:25.755Z,1.80
2022-09-07T04:18:54.664Z,1.90
2022-09-07T04:21:23.779Z,2.25
2022-09-07T04:23:51.920Z,2.15
2022-09-07T04:26:21.900Z,1.83
2022-09-07T04:28:51.509Z,2.40
2022-09-07T04:31:20.509Z,2.30
2022-09-07T04:33:50.092Z,2.50
2022-09-07T04:36:18.916Z,1.70
2022-09-07T04:38:47.189Z,2.10
2022-09-07T04:41:17.158Z,1.90
2022-09-07T04:43:45.713Z,1.83
2022-09-07T04:46:20.417Z,2.35
2022-09-07T04:48:49.328Z,2.47
2022-09-07T04:51:20.708Z,1.98
2022-09-07T04:53:49.806Z,2.50
2022-09-07T04:56:18.391Z,2.35
2022-09-07T04:58:47.584Z,2.08
2022-09-07T05:01:18.639Z,1.92
2022-09-07T05:03:47.246Z,2.03
2022-09-07T05:06:16.479Z,2.17
2022-09-07T05:08:46.196Z,2.22
2022-09-07T05:11:15.175Z,1.88
2022-09-07T05:13:43.379Z,1.73
2022-09-07T05:16:12.641Z,1.80
2022-09-07T05:18:41.963Z,2.03
2022-09-07T05:21:12.000Z,1.92
2022-09-07T05:23:40.397Z,2.13
2022-09-07T05:26:08.824Z,2.65
2022-09-07T05:28:36.989Z,2.38
2022-09-07T05:36:37.250Z,2.55
2022-09-07T05:39:06.450Z,2.20
2022-09-07T05:41:34.137Z,2.50
2022-09-07T05:46:49.838Z,2.20
2022-09-07T05:49:18.880Z,2.30
2022-09-07T05:51:46.902Z,1.95
2022-09-07T05:54:14.683Z,2.58
2022-09-07T05:56:42.351Z,2.25
2022-09-07T05:59:10.114Z,5.03
2022-09-07T06:01:37.875Z,5.82
2022-09-07T06:04:05.660Z,3.30
2022-09-07T06:06:38.867Z,3.10
2022-09-07T06:09:07.706Z,2.92
2022-09-07T06:11:35.475Z,3.00
2022-09-07T06:14:03.180Z,2.85
2022-09-07T06:16:34.555Z,2.03
2022-09-07T06:19:08.315Z,2.33
2022-09-07T06:21:39.668Z,2.40
2022-09-07T06:24:07.949Z,2.72
2022-09-07T06:26:35.647Z,3.17
2022-09-07T06:29:03.693Z,3.28
2022-09-07T06:31:31.911Z,3.38
2022-09-07T06:33:59.701Z,2.90
2022-09-07T06:36:28.462Z,2.42
2022-09-07T06:39:01.374Z,2.92
2022-09-07T06:44:21.427Z,2.40
2022-09-07T06:47:04.831Z,2.35
2022-09-07T06:52:00.417Z,3.70
2022-09-07T06:57:17.137Z,2.10
2022-09-07T06:59:44.870Z,2.08
2022-09-07T07:02:14.826Z,2.70
2022-09-07T07:04:42.533Z,1.80
2022-09-07T07:07:14.137Z,1.77
2022-09-07T07:09:43.307Z,1.63
2022-09-07T07:12:12.003Z,2.22
2022-09-07T07:14:44.712Z,1.95
2022-09-07T07:17:12.985Z,1.83
2022-09-07T07:19:40.729Z,1.50
2022-09-07T07:22:24.008Z,1.33
2022-09-07T07:24:57.560Z,3.08
2022-09-07T07:27:25.325Z,1.38
2022-09-07T07:29:53.835Z,1.60
2022-09-07T07:32:22.595Z,2.00
2022-09-07T07:34:50.255Z,1.30
2022-09-07T07:37:18.001Z,1.20
2022-09-07T07:42:35.539Z,1.45
2022-09-07T07:47:51.936Z,1.40
2022-09-07T07:50:35.089Z,1.30
2022-09-07T07:55:50.730Z,1.38
2022-09-07T07:58:20.116Z,1.30
2022-09-07T08:00:56.180Z,1.20
2022-09-07T08:03:25.788Z,1.55
2022-09-07T08:05:53.726Z,1.80
2022-09-07T08:08:21.968Z,1.40
2022-09-07T08:10:49.637Z,1.58
2022-09-07T08:13:19.033Z,1.48
2022-09-07T08:15:47.116Z,1.58
2022-09-07T08:18:16.365Z,1.58
2022-09-07T08:20:44.312Z,1.13
2022-09-07T08:23:12.114Z,1.33
2022-09-07T08:25:40.143Z,1.33
2022-09-07T08:28:08.261Z,1.55
2022-09-07T08:30:39.987Z,1.60
2022-09-07T08:33:07.484Z,1.50
2022-09-07T08:35:35.137Z,1.52
2022-09-07T08:38:02.749Z,1.25
2022-09-07T08:40:32.101Z,1.55
2022-09-07T08:43:09.210Z,1.17
2022-09-07T08:45:44.700Z,1.52
2022-09-07T08:48:18.408Z,1.23
2022-09-07T08:50:54.200Z,1.20
2022-09-07T08:53:24.966Z,1.65
2022-09-07T08:55:56.970Z,1.70
2022-09-07T08:58:48.345Z,1.48
2022-09-07T09:01:35.504Z,2.53
2022-09-07T09:04:21.064Z,1.45
2022-09-07T09:07:02.611Z,1.30
2022-09-07T09:09:45.393Z,1.60
2022-09-07T09:12:22.882Z,1.60
2022-09-07T09:15:04.174Z,2.22
2022-09-07T09:17:37.223Z,1.25
2022-09-07T09:20:18.377Z,1.90
2022-09-07T09:22:46.369Z,1.60
2022-09-07T09:25:20.034Z,1.55
2022-09-07T09:27:48.027Z,1.58
2022-09-07T09:30:18.303Z,1.40
2022-09-07T09:32:49.518Z,1.60
2022-09-07T09:35:24.449Z,1.35
2022-09-07T09:37:52.108Z,1.50
2022-09-07T09:40:23.116Z,1.77
2022-09-07T09:43:01.724Z,1.25
2022-09-07T09:46:12.105Z,1.65
2022-09-07T09:48:28.363Z,1.42
2022-09-07T09:53:58.959Z,1.13
2022-09-07T09:56:40.726Z,1.55
2022-09-07T10:05:28.323Z,1.30
2022-09-07T10:07:56.461Z,1.25
2022-09-07T10:10:24.798Z,1.35
2022-09-07T10:12:55.068Z,1.60
2022-09-07T10:15:30.149Z,1.90
2022-09-07T10:17:59.989Z,1.48
2022-09-07T10:20:35.752Z,1.23
2022-09-07T10:23:05.670Z,1.85
2022-09-07T10:25:36.330Z,2.05
2022-09-07T10:28:15.278Z,1.52
2022-09-07T10:30:57.006Z,1.05
2022-09-07T10:33:35.015Z,1.58
2022-09-07T10:36:13.356Z,1.50
2022-09-07T10:38:46.799Z,1.02
2022-09-07T10:41:16.624Z,1.75
2022-09-07T10:43:46.184Z,1.25
2022-09-07T10:49:27.448Z,1.27
2022-09-07T10:52:05.561Z,1.63
2022-09-07T10:54:42.636Z,1.27
2022-09-07T10:57:29.886Z,1.17
2022-09-07T11:00:11.283Z,1.35
2022-09-07T11:05:56.496Z,1.33
2022-09-07T11:09:15.733Z,1.70
2022-09-07T11:14:20.642Z,1.23
2022-09-07T11:16:58.602Z,1.52
2022-09-07T11:19:38.333Z,1.50
2022-09-07T11:22:19.997Z,1.10
2022-09-07T11:27:45.607Z,1.20
2022-09-07T11:30:20.396Z,1.00
2022-09-07T11:32:54.856Z,0.73
2022-09-07T11:35:30.975Z,1.48
2022-09-07T11:38:05.317Z,1.38
2022-09-07T11:40:39.388Z,0.73
2022-09-07T11:43:17.630Z,0.98
2022-09-07T11:45:49.737Z,1.05
2022-09-07T11:48:22.632Z,1.00
2022-09-07T11:50:53.973Z,1.38
2022-09-07T11:53:24.753Z,1.20
2022-09-07T11:55:58.383Z,1.42
2022-09-07T11:58:47.195Z,1.08
2022-09-07T12:01:27.809Z,1.20
2022-09-07T12:04:15.434Z,1.08
2022-09-07T12:06:57.729Z,0.90
2022-09-07T12:09:41.560Z,1.00
2022-09-07T12:12:28.553Z,1.00
2022-09-07T12:15:10.608Z,0.90
2022-09-07T12:17:50.839Z,1.00
2022-09-07T12:20:20.198Z,0.75
2022-09-07T12:23:05.361Z,1.05
2022-09-07T12:25:34.392Z,1.08
2022-09-07T12:28:04.033Z,1.08
2022-09-07T12:30:59.755Z,0.95
2022-09-07T12:33:36.549Z,1.10
2022-09-07T12:36:49.277Z,1.23
2022-09-07T12:39:24.962Z,1.48
2022-09-07T12:44:43.971Z,0.82
2022-09-07T12:47:30.727Z,1.02
2022-09-07T12:50:23.561Z,1.05
2022-09-07T12:53:18.036Z,0.88
2022-09-07T12:56:16.622Z,0.98
2022-09-07T12:58:57.174Z,1.02
2022-09-07T13:01:49.785Z,1.23
2022-09-07T13:04:38.475Z,0.85
2022-09-07T13:07:38.872Z,0.77
2022-09-07T13:10:24.264Z,0.95
2022-09-07T13:12:53.395Z,1.40
2022-09-07T13:15:38.810Z,1.50
2022-09-07T13:18:12.519Z,0.77
2022-09-07T13:20:41.634Z,1.10
2022-09-07T13:23:30.503Z,1.60
2022-09-07T13:26:00.406Z,0.82
2022-09-07T13:28:41.336Z,0.80
2022-09-07T13:31:21.887Z,0.80
2022-09-07T13:33:51.736Z,0.80
2022-09-07T13:36:25.412Z,0.95
2022-09-07T13:38:54.269Z,0.80
2022-09-07T13:41:24.311Z,0.60
2022-09-07T13:43:58.491Z,0.70
2022-09-07T13:46:41.868Z,0.80
2022-09-07T13:49:22.626Z,1.08
2022-09-07T13:51:56.462Z,0.75
2022-09-07T13:54:29.622Z,0.70
2022-09-07T13:57:07.508Z,0.90
2022-09-07T13:59:36.106Z,1.20
2022-09-07T14:02:04.209Z,0.70
2022-09-07T14:04:38.219Z,1.20
2022-09-07T14:07:07.601Z,1.27
2022-09-07T14:09:35.584Z,1.30
2022-09-07T14:12:03.553Z,0.98
2022-09-07T14:14:33.269Z,1.20
2022-09-07T14:17:05.381Z,0.90
2022-09-07T14:19:40.021Z,0.87
2022-09-07T14:22:13.362Z,0.80
2022-09-07T14:24:43.953Z,1.00
2022-09-07T14:27:22.427Z,0.85
2022-09-07T14:29:50.289Z,0.80
2022-09-07T14:32:21.511Z,0.90
2022-09-07T14:34:52.051Z,1.13
2022-09-07T14:37:22.634Z,0.80
2022-09-07T14:39:52.680Z,0.80
2022-09-07T14:42:23.647Z,0.82
2022-09-07T14:44:54.205Z,0.70
2022-09-07T14:47:29.161Z,0.93
2022-09-07T14:50:05.626Z,0.60
2022-09-07T14:52:40.690Z,0.65
2022-09-07T14:55:28.963Z,0.77
2022-09-07T14:58:10.493Z,0.60
2022-09-07T15:00:38.654Z,0.60
2022-09-07T15:03:26.651Z,0.90
2022-09-07T15:06:00.800Z,0.90
2022-09-07T15:08:38.870Z,0.82
2022-09-07T15:13:58.637Z,0.70
2022-09-07T15:16:28.319Z,0.80
2022-09-07T15:18:57.783Z,0.88
2022-09-07T15:21:28.950Z,0.60
2022-09-07T15:23:58.476Z,0.95
2022-09-07T15:32:01.167Z,2.58
2022-09-07T15:34:32.084Z,0.70
2022-09-07T15:37:01.788Z,0.90
2022-09-07T15:39:30.574Z,0.60
2022-09-07T15:42:00.667Z,1.02
2022-09-07T15:44:46.369Z,0.98
2022-09-07T15:50:01.869Z,2.30
2022-09-07T15:52:32.228Z,0.88
2022-09-07T15:55:00.212Z,1.30
2022-09-07T16:00:16.530Z,0.95
2022-09-07T16:05:31.884Z,0.70
2022-09-07T16:11:04.701Z,0.77
2022-09-07T16:13:32.884Z,0.80
2022-09-07T16:16:01.887Z,0.70
2022-09-07T16:18:33.058Z,0.90
2022-09-07T16:21:05.673Z,0.98
2022-09-07T16:23:34.862Z,0.80
2022-09-07T16:26:04.340Z,0.80
2022-09-07T16:28:32.676Z,1.30
2022-09-07T16:31:00.376Z,2.72
2022-09-07T16:33:35.959Z,1.90
2022-09-07T16:36:06.480Z,0.70
2022-09-07T16:38:51.388Z,0.90
2022-09-07T16:41:22.592Z,1.08
2022-09-07T16:43:50.433Z,0.50
2022-09-07T16:46:20.587Z,0.60
2022-09-07T16:48:48.478Z,0.50
2022-09-07T16:51:19.576Z,0.50
2022-09-07T16:53:49.795Z,0.65
2022-09-07T16:56:19.868Z,0.70
2022-09-07T16:58:49.886Z,0.88
2022-09-07T17:01:19.411Z,0.80
2022-09-07T17:03:49.215Z,0.70
2022-09-07T17:06:18.135Z,0.55
2022-09-07T17:08:46.996Z,0.50
2022-09-07T17:11:17.996Z,0.70
2022-09-07T17:13:46.376Z,1.00
2022-09-07T17:16:16.683Z,0.50
2022-09-07T17:21:34.400Z,0.47
2022-09-07T17:24:04.303Z,0.82
2022-09-07T17:26:33.926Z,0.73
2022-09-07T17:29:01.744Z,0.50
2022-09-07T17:34:19.535Z,0.60
2022-09-07T17:36:47.182Z,0.80
2022-09-07T17:39:17.233Z,0.50
2022-09-07T17:41:47.977Z,0.50
2022-09-07T17:44:15.973Z,0.57
2022-09-07T17:46:43.820Z,0.40
2022-09-07T17:49:12.304Z,0.90
2022-09-07T17:51:40.500Z,1.10
2022-09-07T17:54:10.944Z,1.42
2022-09-07T17:56:40.243Z,0.50
2022-09-07T18:01:58.185Z,0.50
2022-09-07T18:04:26.036Z,0.57
2022-09-07T18:06:54.471Z,0.57
2022-09-07T18:09:22.210Z,0.57
2022-09-07T18:11:50.702Z,0.63
2022-09-07T18:14:20.119Z,0.77
2022-09-07T18:16:50.153Z,0.70
2022-09-07T18:19:29.020Z,0.47
2022-09-07T18:21:57.185Z,0.50
2022-09-07T18:24:25.393Z,0.52
2022-09-07T18:26:54.096Z,0.50
2022-09-07T18:29:30.205Z,0.55
2022-09-07T18:32:02.284Z,0.60
2022-09-07T18:34:30.653Z,0.82
2022-09-07T18:36:59.114Z,0.60
2022-09-07T18:39:26.961Z,0.90
2022-09-07T18:41:55.477Z,0.90
2022-09-07T18:47:21.189Z,0.60
2022-09-07T18:49:50.897Z,1.10
2022-09-07T18:55:07.155Z,0.80
2022-09-07T18:57:36.178Z,0.60
2022-09-07T19:00:06.733Z,0.77
2022-09-07T19:02:35.058Z,0.82
2022-09-07T19:07:50.296Z,0.85
2022-09-07T19:10:18.260Z,0.80
2022-09-07T19:12:46.498Z,0.70
2022-09-07T19:15:15.916Z,0.80
2022-09-07T19:17:48.546Z,0.70
2022-09-07T19:20:16.180Z,0.70
2022-09-07T19:22:43.782Z,0.75
2022-09-07T19:25:11.370Z,0.90
2022-09-07T19:27:38.897Z,0.85
2022-09-07T19:30:07.244Z,0.70
2022-09-07T19:32:36.341Z,0.80
2022-09-07T19:35:04.253Z,0.70
2022-09-07T19:37:32.717Z,0.75
2022-09-07T19:40:01.732Z,0.70
2022-09-07T19:42:55.145Z,1.67
2022-09-07T19:45:22.709Z,0.90
2022-09-07T19:47:51.669Z,0.80
2022-09-07T19:50:21.982Z,0.80
2022-09-07T19:52:49.629Z,0.90
2022-09-07T19:55:17.496Z,0.77
2022-09-07T19:57:46.584Z,0.90
2022-09-07T20:00:15.211Z,0.80
2022-09-07T20:02:42.926Z,0.93
2022-09-07T20:05:13.400Z,1.23
2022-09-07T20:07:41.021Z,1.90
2022-09-07T20:10:09.248Z,1.23
2022-09-07T20:12:36.782Z,1.20
2022-09-07T20:15:04.765Z,1.02
2022-09-07T20:17:35.304Z,0.93
2022-09-07T20:20:03.617Z,0.77
2022-09-07T20:22:32.612Z,1.05
2022-09-07T20:25:00.168Z,0.60
2022-09-07T20:27:27.783Z,0.90
2022-09-07T20:29:55.283Z,0.90
2022-09-07T20:32:22.834Z,0.90
2022-09-07T20:34:50.456Z,1.35
2022-09-07T20:37:17.957Z,0.77
2022-09-07T20:39:48.890Z,1.40
2022-09-07T20:42:16.454Z,3.17
2022-09-07T20:44:43.960Z,2.10
2022-09-07T20:47:11.607Z,1.23
2022-09-07T20:49:39.540Z,1.50
2022-09-07T20:52:07.127Z,1.33
2022-09-07T20:54:34.754Z,1.40
2022-09-07T20:57:21.843Z,1.42
2022-09-07T21:00:20.050Z,0.80
2022-09-07T21:02:47.649Z,0.80
2022-09-07T21:05:15.407Z,1.00
2022-09-07T21:07:42.915Z,0.80
2022-09-07T21:10:10.937Z,1.00
2022-09-07T21:12:39.835Z,0.90
2022-09-07T21:15:08.821Z,0.90
2022-09-07T21:17:36.397Z,0.98
2022-09-07T21:20:04.535Z,1.00
2022-09-07T21:22:32.534Z,5.07
2022-09-07T21:25:01.973Z,2.22
2022-09-07T21:27:37.707Z,1.60
2022-09-07T21:30:08.752Z,1.10
2022-09-07T21:32:36.252Z,1.50
2022-09-07T21:35:03.791Z,1.50
2022-09-07T21:37:31.629Z,1.25
2022-09-07T21:39:59.312Z,1.55
2022-09-07T21:42:26.901Z,1.10
2022-09-07T21:44:54.429Z,1.05
2022-09-07T21:47:23.316Z,1.00
2022-09-07T21:49:51.039Z,1.20
2022-09-07T21:52:19.406Z,1.05
2022-09-07T21:54:46.923Z,1.05
2022-09-07T21:57:14.516Z,0.82
2022-09-07T21:59:42.013Z,1.17
2022-09-07T22:02:09.582Z,0.77
2022-09-07T22:04:38.453Z,1.23
2022-09-07T22:07:06.182Z,1.00
2022-09-07T22:09:33.700Z,0.80
2022-09-07T22:12:01.265Z,0.88
2022-09-07T22:14:28.932Z,0.80
2022-09-07T22:16:56.651Z,0.82
2022-09-07T22:19:24.444Z,0.82
2022-09-07T22:21:53.645Z,1.02
2022-09-07T22:24:21.242Z,1.10
2022-09-07T22:26:48.923Z,1.00
2022-09-07T22:29:16.530Z,1.00
2022-09-07T22:31:44.446Z,0.93
2022-09-07T22:34:12.124Z,0.88
2022-09-07T22:36:41.518Z,0.77
2022-09-07T22:39:14.397Z,1.00
2022-09-07T22:41:43.125Z,1.13
2022-09-07T22:44:12.885Z,0.70
2022-09-07T22:46:42.243Z,0.90
2022-09-07T22:49:12.218Z,1.00
2022-09-07T22:51:39.969Z,1.00
2022-09-07T22:54:07.860Z,0.60
2022-09-07T22:56:38.162Z,0.80
2022-09-07T22:59:08.707Z,1.35
2022-09-07T23:01:37.806Z,1.30
2022-09-07T23:04:06.368Z,1.00
2022-09-07T23:06:35.619Z,1.40
2022-09-07T23:09:06.680Z,1.10
2022-09-07T23:11:36.124Z,1.30
2022-09-07T23:14:07.006Z,1.30
2022-09-07T23:16:34.565Z,1.40
2022-09-07T23:19:02.390Z,1.15
2022-09-07T23:21:30.539Z,1.40
2022-09-07T23:23:59.802Z,1.50
2022-09-07T23:26:30.088Z,1.50
2022-09-07T23:29:00.693Z,1.25
2022-09-07T23:31:31.990Z,1.13
2022-09-07T23:34:00.059Z,1.35
2022-09-07T23:36:27.847Z,1.30
2022-09-07T23:38:56.614Z,1.45
2022-09-07T23:41:24.974Z,1.30
2022-09-07T23:43:52.533Z,1.10
2022-09-07T23:46:21.884Z,0.95
2022-09-07T23:48:50.074Z,1.25
2022-09-07T23:51:23.549Z,1.67
2022-09-07T23:53:52.562Z,1.35
2022-09-07T23:56:20.458Z,1.30
2022-09-07T23:58:48.118Z,1.05
